Gardner, Nebraska
Current Conditions -  °F | °C
As of 9:15 PM on Thursday 27 Nov 2014 (Local Time) from KEAR Reporting Station
Clear Clear  
Wind Chill: 17°   Ceiling: Unl
Heat Index: 25°   Visibility: 10mi
Dew Point: 18°   Wind: 7mph
Humidity: 74%   Direction: 120°ESE
Pressure: 30.04"   Gusts: NA
Location:  40.7619°N, 99.1445°W
Report Text: KEAR 280315Z 12006KT 10SM CLR M04/M08 A3004 RMK AO1
Loading
Personal Weather Stations






























Interactive Weather Map New forecast layout! Learn more

10-Day Weather Forecast

Advertisements
Track Severe Weather on mobile